KRH weather

Redhill Aerodrome
Redhill, England, United Kingdom

Public forecast

Using degrees Celsius for public forecast. Weather courtesy of forecast.io.

Closest aviation weather report (METAR) to Redhill Aerodrome

Closest report is London Gatwick Airport, 4.4 nm (8.1 km) SSW. Retrieved 2020/02/25 20:50 UTC (12 minutes ago):

EGKK 252050Z 26013KT 9999 SCT025 03/00 Q0996

Closest aviation forecast (TAF) to Redhill Aerodrome

Closest forecast is London Gatwick Airport, 4.4 nm (8.1 km) SSW. Retrieved 2020/02/25 18:00 UTC (3 hours ago):

TAF EGKK 251700Z 2518/2624 25012KT 9999 SCT030 TEMPO 2518/2523 27016G26KT 6000 SHRA PROB30 TEMPO 2518/2523 2000 SHRASN BKN009CB PROB30 TEMPO 2523/2604 27015G25KT BKN014 PROB30 TEMPO 2609/2616 30015G25KT 7000 SHRA BKN015